createdAt,value
2023-08-24T12:06:36.142Z,32.37
2023-08-24T12:07:36.041Z,32.49
2023-08-24T12:09:39.890Z,32.68
2023-08-24T12:10:39.806Z,32.77
2023-08-24T12:12:43.668Z,32.87
2023-08-24T12:13:43.555Z,32.89
2023-08-24T12:14:43.490Z,32.97
2023-08-24T12:15:43.416Z,32.95
2023-08-24T12:16:43.333Z,33.00
2023-08-24T12:17:43.284Z,33.07
2023-08-24T12:18:43.194Z,33.12
2023-08-24T12:19:43.124Z,33.28
2023-08-24T12:20:43.066Z,33.31
2023-08-24T12:21:42.994Z,33.43
2023-08-24T12:22:42.928Z,33.57
2023-08-24T12:23:42.842Z,33.77
2023-08-24T12:24:42.780Z,33.98
2023-08-24T12:25:42.703Z,34.10
2023-08-24T12:26:42.638Z,34.36
2023-08-24T12:27:42.595Z,34.70
2023-08-24T12:28:42.499Z,35.00
2023-08-24T12:29:42.423Z,35.12
2023-08-24T12:30:42.375Z,35.30
2023-08-24T12:31:42.296Z,35.51
2023-08-24T12:32:42.243Z,35.74
2023-08-24T12:33:42.149Z,35.83
2023-08-24T12:34:42.083Z,35.97
2023-08-24T12:35:42.019Z,36.21
2023-08-24T12:36:41.951Z,36.54
2023-08-24T12:37:41.888Z,36.81
2023-08-24T12:38:41.817Z,36.99
2023-08-24T12:39:41.747Z,37.11
2023-08-24T12:40:41.685Z,37.26
2023-08-24T12:41:41.612Z,37.25
2023-08-24T12:42:41.543Z,37.36
2023-08-24T12:43:43.380Z,37.47
2023-08-24T12:44:41.416Z,37.53
2023-08-24T12:45:41.361Z,37.64
2023-08-24T12:46:41.327Z,37.80
2023-08-24T12:47:41.214Z,38.05
2023-08-24T12:48:41.161Z,38.21
2023-08-24T12:49:41.088Z,38.36
2023-08-24T12:50:41.027Z,38.52
2023-08-24T12:51:40.966Z,38.64
2023-08-24T12:52:40.894Z,38.64
2023-08-24T12:53:40.832Z,38.76
2023-08-24T12:54:40.766Z,38.80
2023-08-24T12:55:40.698Z,38.76
2023-08-24T12:56:40.633Z,38.68
2023-08-24T12:57:40.565Z,38.62
2023-08-24T12:58:40.519Z,38.52
2023-08-24T12:59:40.436Z,38.54
2023-08-24T13:00:40.400Z,38.52
2023-08-24T13:01:40.313Z,38.52
2023-08-24T13:02:40.272Z,38.46
2023-08-24T13:03:40.192Z,38.55
2023-08-24T13:04:40.142Z,38.68
2023-08-24T13:05:40.063Z,38.68
2023-08-24T13:06:39.982Z,38.80
2023-08-24T13:07:39.940Z,38.89
2023-08-24T13:08:39.861Z,38.82
2023-08-24T13:09:39.846Z,38.91
2023-08-24T13:10:39.727Z,39.15
2023-08-24T13:11:39.681Z,39.37
2023-08-24T13:12:39.618Z,39.38
2023-08-24T13:13:39.539Z,39.59
2023-08-24T13:14:39.492Z,39.68
2023-08-24T13:15:39.420Z,39.81
2023-08-24T13:16:39.397Z,39.96
2023-08-24T13:17:39.336Z,39.90
2023-08-24T13:18:39.251Z,40.12
2023-08-24T13:19:39.185Z,40.20
2023-08-24T13:20:39.092Z,40.27
2023-08-24T13:21:39.029Z,40.31
2023-08-24T13:22:38.969Z,40.28
2023-08-24T13:23:38.907Z,40.12
2023-08-24T13:24:38.841Z,39.99
2023-08-24T13:25:38.783Z,39.90
2023-08-24T13:26:39.733Z,39.93
2023-08-24T13:27:38.657Z,39.87
2023-08-24T13:28:38.595Z,40.06
2023-08-24T13:29:38.526Z,40.20
2023-08-24T13:30:38.497Z,40.54
2023-08-24T13:31:38.396Z,40.80
2023-08-24T13:32:38.356Z,40.99
2023-08-24T13:33:38.271Z,41.22
2023-08-24T13:34:38.213Z,41.31
2023-08-24T13:35:38.148Z,41.44
2023-08-24T13:36:38.097Z,41.50
2023-08-24T13:37:38.026Z,41.53
2023-08-24T13:38:37.963Z,41.49
2023-08-24T13:39:37.893Z,41.53
2023-08-24T13:40:38.717Z,41.66
2023-08-24T13:41:37.783Z,41.70
2023-08-24T13:42:37.710Z,41.83
2023-08-24T13:43:37.662Z,41.98
2023-08-24T13:44:37.594Z,41.97
2023-08-24T13:45:38.191Z,41.99
2023-08-24T13:46:37.515Z,42.04
2023-08-24T13:47:37.471Z,42.19
2023-08-24T13:48:37.348Z,42.10
2023-08-24T13:49:40.532Z,41.97
2023-08-24T13:50:37.236Z,41.90
2023-08-24T13:51:37.169Z,41.77
2023-08-24T13:52:37.098Z,41.59
2023-08-24T13:53:37.050Z,41.52
2023-08-24T13:54:36.980Z,41.49
2023-08-24T13:55:36.914Z,41.31
2023-08-24T13:56:38.373Z,41.16
2023-08-24T13:57:36.807Z,41.00
2023-08-24T13:58:36.755Z,40.72
2023-08-24T13:59:36.669Z,40.46
2023-08-24T14:00:36.630Z,40.21
2023-08-24T14:01:36.605Z,40.14
2023-08-24T14:02:36.519Z,39.97
2023-08-24T14:03:36.453Z,39.93
2023-08-24T14:04:36.369Z,39.78
2023-08-24T14:05:36.324Z,39.62
2023-08-24T14:06:36.243Z,39.55
2023-08-24T14:07:36.177Z,39.33
2023-08-24T14:08:41.129Z,39.26
2023-08-24T14:09:37.423Z,39.15
2023-08-24T14:10:37.294Z,39.07
2023-08-24T14:11:36.912Z,38.96
2023-08-24T14:12:47.779Z,38.76
2023-08-24T14:13:36.138Z,38.77
2023-08-24T14:14:43.339Z,38.69
2023-08-24T14:15:35.925Z,38.65
2023-08-24T14:16:35.980Z,38.65
2023-08-24T14:18:35.869Z,38.73
2023-08-24T14:19:35.767Z,38.68
2023-08-24T14:20:35.565Z,38.67
2023-08-24T14:22:40.184Z,38.74
2023-08-24T14:23:37.946Z,38.80
2023-08-24T14:24:38.272Z,38.82
2023-08-24T14:25:37.577Z,38.73
2023-08-24T14:26:38.923Z,38.79
2023-08-24T14:27:40.476Z,38.67
2023-08-24T14:28:35.753Z,38.68
2023-08-24T14:29:34.843Z,38.73
2023-08-24T14:30:34.827Z,38.80
2023-08-24T14:34:24.107Z,38.67
2023-08-24T14:36:07.157Z,38.43
2023-08-24T14:37:07.389Z,38.42
2023-08-24T14:38:06.987Z,38.30
2023-08-24T14:39:06.751Z,38.21
2023-08-24T14:40:06.853Z,38.04
2023-08-24T14:41:07.874Z,38.02
2023-08-24T14:42:08.052Z,37.87
2023-08-24T14:43:06.641Z,37.68
2023-08-24T14:44:09.968Z,37.48
2023-08-24T14:45:06.364Z,37.17
2023-08-24T14:46:06.345Z,37.01
2023-08-24T14:47:06.420Z,36.88
2023-08-24T14:48:06.374Z,36.73
2023-08-24T14:49:06.138Z,36.64
2023-08-24T14:50:05.993Z,36.55
2023-08-24T14:51:06.008Z,36.57
2023-08-24T14:52:05.794Z,36.54
2023-08-24T14:53:09.912Z,36.45
2023-08-24T14:54:12.477Z,36.42
2023-08-24T14:55:05.824Z,36.37
2023-08-24T14:56:05.776Z,36.23
2023-08-24T14:57:05.724Z,36.23
2023-08-24T14:58:08.092Z,36.37
2023-08-24T14:59:06.298Z,36.40
2023-08-24T15:00:08.047Z,36.65
2023-08-24T15:01:05.673Z,36.76
2023-08-24T15:02:05.195Z,37.02
2023-08-24T15:03:06.568Z,37.03
2023-08-24T15:04:05.802Z,37.29
2023-08-24T15:05:07.725Z,37.44
2023-08-24T15:06:08.326Z,37.80
2023-08-24T15:07:08.895Z,37.89
2023-08-24T15:08:09.006Z,38.05
2023-08-24T15:09:04.813Z,38.15
2023-08-24T15:10:12.686Z,38.30
2023-08-24T15:11:06.413Z,38.55
2023-08-24T15:12:06.623Z,38.69
2023-08-24T15:13:06.428Z,38.69
2023-08-24T15:14:12.819Z,38.55
2023-08-24T15:15:04.480Z,38.49
2023-08-24T15:16:04.282Z,38.39
2023-08-24T15:17:04.197Z,38.24
2023-08-24T15:18:04.199Z,38.28
2023-08-24T15:19:04.401Z,37.96
2023-08-24T15:20:06.083Z,37.93
2023-08-24T15:21:04.971Z,37.83
2023-08-24T15:22:04.078Z,37.80
2023-08-24T15:23:04.113Z,37.60
2023-08-24T15:24:03.740Z,37.39
2023-08-24T15:25:04.301Z,37.21
2023-08-24T15:26:03.813Z,37.17
2023-08-24T15:27:08.937Z,37.07
2023-08-24T15:28:03.580Z,36.91
2023-08-24T15:29:03.542Z,36.86
2023-08-24T15:30:03.428Z,36.62
2023-08-24T15:31:03.304Z,36.54
2023-08-24T15:32:08.198Z,36.47
2023-08-24T15:33:03.426Z,36.43
2023-08-24T15:34:03.217Z,36.39
2023-08-24T15:35:05.652Z,36.43
2023-08-24T15:36:11.052Z,36.43
2023-08-24T15:37:02.937Z,36.47
2023-08-24T15:38:07.987Z,36.61
2023-08-24T15:39:03.501Z,36.59
2023-08-24T15:40:02.849Z,36.59
2023-08-24T15:41:09.167Z,36.58
2023-08-24T15:42:03.472Z,36.73
2023-08-24T15:43:02.726Z,36.81
2023-08-24T15:44:02.435Z,36.96
2023-08-24T15:45:03.587Z,37.06
2023-08-24T15:46:02.413Z,36.95
2023-08-24T15:47:02.163Z,37.08
2023-08-24T15:48:02.809Z,37.08
2023-08-24T15:49:04.835Z,37.15
2023-08-24T15:50:05.217Z,37.15
2023-08-24T15:51:02.231Z,37.23
2023-08-24T15:52:01.972Z,37.30
2023-08-24T15:53:02.049Z,37.37
2023-08-24T15:54:01.906Z,37.36
2023-08-24T15:55:01.922Z,37.47
2023-08-24T15:56:01.652Z,37.48
2023-08-24T15:57:01.638Z,37.47
2023-08-24T15:58:01.768Z,37.49
2023-08-24T15:59:01.577Z,37.49
2023-08-24T16:00:02.343Z,37.37
2023-08-24T16:01:03.423Z,37.37
2023-08-24T16:02:01.428Z,37.23
2023-08-24T16:03:02.477Z,37.10
2023-08-24T16:04:05.039Z,37.14
2023-08-24T16:05:01.087Z,37.01
2023-08-24T16:06:00.969Z,36.93
2023-08-24T16:07:00.992Z,36.83
2023-08-24T16:08:02.616Z,36.77
2023-08-24T16:09:00.987Z,36.51
2023-08-24T16:10:04.988Z,36.55
2023-08-24T16:11:00.901Z,36.39
2023-08-24T16:12:00.739Z,36.30
2023-08-24T16:13:00.818Z,36.27
2023-08-24T16:14:00.424Z,36.21
2023-08-24T16:15:00.393Z,36.17
2023-08-24T16:16:00.289Z,36.02
2023-08-24T16:17:00.324Z,36.18
2023-08-24T16:18:00.197Z,36.20
2023-08-24T16:19:00.089Z,36.02
2023-08-24T16:20:00.032Z,35.97
2023-08-24T16:20:59.957Z,35.92
2023-08-24T16:21:59.885Z,35.76
2023-08-24T16:22:59.837Z,35.53
2023-08-24T16:23:59.757Z,35.33
2023-08-24T16:24:59.689Z,35.24
2023-08-24T16:25:59.628Z,35.08
2023-08-24T16:26:59.562Z,34.92
2023-08-24T16:27:59.479Z,34.85
2023-08-24T16:28:59.414Z,34.57
2023-08-24T16:29:59.346Z,34.45
2023-08-24T16:30:59.292Z,34.43
2023-08-24T16:31:59.113Z,34.30
2023-08-24T16:32:59.208Z,34.23
2023-08-24T16:33:59.076Z,34.13
2023-08-24T16:34:59.010Z,34.03
2023-08-24T16:35:58.945Z,33.90
2023-08-24T16:36:58.884Z,33.79
2023-08-24T16:37:58.809Z,33.68
2023-08-24T16:38:58.741Z,33.59
2023-08-24T16:39:58.668Z,33.43
2023-08-24T16:40:58.602Z,33.45
2023-08-24T16:41:58.530Z,33.27
2023-08-24T16:42:58.463Z,33.17
2023-08-24T16:43:58.404Z,33.11
2023-08-24T16:44:58.342Z,33.08
2023-08-24T16:45:58.260Z,32.96
2023-08-24T16:46:58.192Z,32.85
2023-08-24T16:47:58.155Z,32.80
2023-08-24T16:48:58.060Z,32.73
2023-08-24T16:49:57.988Z,32.68
2023-08-24T16:50:57.925Z,32.56
2023-08-24T16:51:57.850Z,32.55
2023-08-24T16:52:57.782Z,32.40
2023-08-24T16:53:57.709Z,32.41
2023-08-24T16:54:57.644Z,32.33
2023-08-24T16:55:57.578Z,32.27
2023-08-24T16:56:57.505Z,32.23
2023-08-24T16:57:57.440Z,32.09
2023-08-24T16:58:57.367Z,32.11
2023-08-24T16:59:57.311Z,32.07
2023-08-24T17:00:57.251Z,31.99
2023-08-24T17:01:57.160Z,31.89
2023-08-24T17:02:57.122Z,31.90
2023-08-24T17:03:57.035Z,31.87
2023-08-24T17:04:56.948Z,31.76
2023-08-24T17:05:56.901Z,31.76
2023-08-24T17:06:56.821Z,31.65
2023-08-24T17:07:56.752Z,31.59
2023-08-24T17:08:56.679Z,31.54
2023-08-24T17:09:56.608Z,31.47
2023-08-24T17:10:56.538Z,31.47
2023-08-24T17:11:56.474Z,31.40
2023-08-24T17:12:56.402Z,31.36
2023-08-24T17:13:56.332Z,31.28
2023-08-24T17:14:56.265Z,31.33
2023-08-24T17:15:56.194Z,31.31
2023-08-24T17:16:56.175Z,31.15
2023-08-24T17:17:56.511Z,31.21
2023-08-24T17:18:55.993Z,31.07
2023-08-24T17:19:55.919Z,31.12
2023-08-24T17:20:55.855Z,31.18
2023-08-24T17:21:55.773Z,31.03
2023-08-24T17:22:55.715Z,31.06
2023-08-24T17:23:55.643Z,31.00
2023-08-24T17:24:55.579Z,30.92
2023-08-24T17:25:55.501Z,30.96
2023-08-24T17:26:55.438Z,30.97
2023-08-24T17:27:55.733Z,30.81
2023-08-24T17:28:55.297Z,30.81
2023-08-24T17:29:55.224Z,30.78
2023-08-24T17:30:55.184Z,30.73
2023-08-24T17:31:55.086Z,30.68
2023-08-24T17:32:56.628Z,30.66
2023-08-24T17:33:54.945Z,30.68
2023-08-24T17:34:54.880Z,30.57
2023-08-24T17:35:54.805Z,30.62
2023-08-24T17:36:54.733Z,30.59
2023-08-24T17:37:54.756Z,30.48
2023-08-24T17:39:07.144Z,30.53
2023-08-24T17:39:54.540Z,30.53
2023-08-24T17:40:54.453Z,30.35
2023-08-24T17:41:54.387Z,30.34
2023-08-24T17:42:54.330Z,30.35
2023-08-24T17:43:54.250Z,30.28
2023-08-24T17:44:54.175Z,30.30
2023-08-24T17:45:54.127Z,30.32
2023-08-24T17:46:54.040Z,30.19
2023-08-24T17:47:54.224Z,30.13
2023-08-24T17:48:53.899Z,30.16
2023-08-24T17:49:53.829Z,30.16
2023-08-24T17:50:53.799Z,30.03
2023-08-24T17:51:53.695Z,30.09
2023-08-24T17:52:53.627Z,30.05
2023-08-24T17:53:53.570Z,30.03
2023-08-24T17:54:53.480Z,29.93
2023-08-24T17:55:53.411Z,29.95
2023-08-24T17:56:53.360Z,29.88
2023-08-24T17:57:53.486Z,29.86
2023-08-24T17:58:53.206Z,29.82
2023-08-24T17:59:53.136Z,29.79
2023-08-24T18:00:53.060Z,29.81
2023-08-24T18:01:53.032Z,29.75
2023-08-24T18:02:52.952Z,29.75
2023-08-24T18:03:52.875Z,29.66
2023-08-24T18:04:52.776Z,29.71
2023-08-24T18:05:52.732Z,29.63
2023-08-24T18:06:52.644Z,29.60
2023-08-24T18:07:52.749Z,29.57
2023-08-24T18:08:52.678Z,29.57
2023-08-24T18:09:52.434Z,29.56
2023-08-24T18:10:52.361Z,29.49
2023-08-24T18:11:52.295Z,29.47
2023-08-24T18:12:52.220Z,29.41
2023-08-24T18:13:53.566Z,29.47
2023-08-24T18:14:52.093Z,29.50
2023-08-24T18:15:52.073Z,29.49
2023-08-24T18:16:51.954Z,29.42
2023-08-24T18:17:52.181Z,29.41
2023-08-24T18:18:51.802Z,29.42
2023-08-24T18:19:51.731Z,29.36
2023-08-24T18:20:51.658Z,29.34
2023-08-24T18:21:51.592Z,29.31
2023-08-24T18:22:51.579Z,29.24
2023-08-24T18:23:51.457Z,29.24
2023-08-24T18:24:51.388Z,29.19
2023-08-24T18:25:51.316Z,29.23
2023-08-24T18:26:51.239Z,29.24
2023-08-24T18:27:51.214Z,29.22
2023-08-24T18:28:51.113Z,29.17
2023-08-24T18:29:51.030Z,29.14
2023-08-24T18:30:50.969Z,29.08
2023-08-24T18:31:50.915Z,29.14
2023-08-24T18:32:50.861Z,29.16
2023-08-24T18:33:50.747Z,29.14
2023-08-24T18:34:50.674Z,29.07
2023-08-24T18:35:50.610Z,29.10
2023-08-24T18:36:50.555Z,29.07
2023-08-24T18:37:50.610Z,28.98
2023-08-24T18:38:50.389Z,29.04
2023-08-24T18:39:50.320Z,29.05
2023-08-24T18:40:50.249Z,29.04
2023-08-24T18:41:50.181Z,28.98
2023-08-24T18:42:50.118Z,28.96
2023-08-24T18:43:50.049Z,28.97
2023-08-24T18:44:49.973Z,28.89
2023-08-24T18:45:49.933Z,28.84
2023-08-24T18:46:49.834Z,28.88
2023-08-24T18:47:49.789Z,28.82
2023-08-24T18:48:49.689Z,28.78
2023-08-24T18:49:49.616Z,28.75
2023-08-24T18:50:49.546Z,28.69
2023-08-24T18:51:49.477Z,28.66
2023-08-24T18:52:49.403Z,28.66
2023-08-24T18:53:49.329Z,28.67
2023-08-24T18:54:49.259Z,28.75
2023-08-24T18:55:49.186Z,28.70
2023-08-24T18:56:49.133Z,28.63
2023-08-24T18:57:49.059Z,28.66
2023-08-24T18:58:48.981Z,28.59
2023-08-24T18:59:48.908Z,28.63
2023-08-24T19:00:48.844Z,28.56
2023-08-24T19:01:48.817Z,28.59
2023-08-24T19:02:48.733Z,28.56
2023-08-24T19:03:48.673Z,28.64
2023-08-24T19:04:48.561Z,28.60
2023-08-24T19:05:48.507Z,28.59
2023-08-24T19:06:48.423Z,28.56
2023-08-24T19:07:48.350Z,28.48
2023-08-24T19:08:48.285Z,28.56
2023-08-24T19:09:48.100Z,28.44
2023-08-24T19:10:48.133Z,28.45
2023-08-24T19:11:48.063Z,28.37
2023-08-24T19:12:47.990Z,28.35
2023-08-24T19:13:47.917Z,28.38
2023-08-24T19:14:47.848Z,28.33
2023-08-24T19:15:47.794Z,28.37
2023-08-24T19:16:47.708Z,28.38
2023-08-24T19:17:47.772Z,28.37
2023-08-24T19:18:47.562Z,28.32
2023-08-24T19:19:47.505Z,28.32
2023-08-24T19:20:47.417Z,28.30
2023-08-24T19:21:47.347Z,28.29
2023-08-24T19:22:47.358Z,28.30
2023-08-24T19:23:47.220Z,28.22
2023-08-24T19:24:47.137Z,28.32
2023-08-24T19:25:47.066Z,28.27
2023-08-24T19:26:47.000Z,28.22
2023-08-24T19:27:46.926Z,28.22
2023-08-24T19:28:46.882Z,28.25
2023-08-24T19:29:46.789Z,28.19
2023-08-24T19:30:46.719Z,28.19
2023-08-24T19:31:46.715Z,28.17
2023-08-24T19:32:46.582Z,28.12
2023-08-24T19:33:46.501Z,28.19
2023-08-24T19:34:46.432Z,28.14
2023-08-24T19:35:46.350Z,28.12
2023-08-24T19:36:46.285Z,28.02
2023-08-24T19:37:46.205Z,28.02
2023-08-24T19:38:46.167Z,28.05
2023-08-24T19:39:46.074Z,27.95
2023-08-24T19:40:46.000Z,28.00
2023-08-24T19:41:57.905Z,27.95
2023-08-24T19:42:45.857Z,27.92
2023-08-24T19:43:45.785Z,27.93
2023-08-24T19:44:45.714Z,27.93
2023-08-24T19:45:45.686Z,27.95
2023-08-24T19:46:45.571Z,27.89
2023-08-24T19:47:45.514Z,27.93
2023-08-24T19:48:45.434Z,27.85
2023-08-24T19:49:45.355Z,27.93
2023-08-24T19:50:45.283Z,27.80
2023-08-24T19:51:45.218Z,27.75
2023-08-24T19:52:45.142Z,27.82
2023-08-24T19:53:45.074Z,27.71
2023-08-24T19:54:45.004Z,27.75
2023-08-24T19:55:44.935Z,27.68
2023-08-24T19:56:44.863Z,27.67
2023-08-24T19:57:44.782Z,27.55
2023-08-24T19:58:44.711Z,27.68
2023-08-24T19:59:44.639Z,27.71
2023-08-24T20:00:44.568Z,27.60
2023-08-24T20:01:44.516Z,27.59
2023-08-24T20:02:44.483Z,27.64
2023-08-24T20:03:44.401Z,27.60
2023-08-24T20:04:44.287Z,27.60
2023-08-24T20:05:44.212Z,27.64
2023-08-24T20:06:44.142Z,27.60
2023-08-24T20:07:44.065Z,27.51
2023-08-24T20:08:43.992Z,27.54
2023-08-24T20:09:43.927Z,27.49
2023-08-24T20:10:43.857Z,27.47
2023-08-24T20:11:43.785Z,27.40
2023-08-24T20:12:43.727Z,27.39
2023-08-24T20:13:43.640Z,27.35
2023-08-24T20:14:43.570Z,27.32
2023-08-24T20:15:43.535Z,27.37
2023-08-24T20:16:43.427Z,27.32
2023-08-24T20:17:43.387Z,27.30
2023-08-24T20:18:43.287Z,27.30
2023-08-24T20:19:43.112Z,27.27
2023-08-24T20:20:43.136Z,27.22
2023-08-24T20:21:43.066Z,27.15
2023-08-24T20:22:43.054Z,27.26
2023-08-24T20:23:42.921Z,27.15
2023-08-24T20:24:42.850Z,27.22
2023-08-24T20:25:42.783Z,27.07
2023-08-24T20:26:42.708Z,27.14
2023-08-24T20:27:42.632Z,27.17
2023-08-24T20:28:42.563Z,27.12
2023-08-24T20:29:42.493Z,27.10
2023-08-24T20:30:42.447Z,27.07
2023-08-24T20:31:42.357Z,27.08
2023-08-24T20:32:42.293Z,27.02
2023-08-24T20:33:42.205Z,27.02
2023-08-24T20:34:42.132Z,27.03
2023-08-24T20:35:42.079Z,26.97
2023-08-24T20:36:41.995Z,27.05
2023-08-24T20:37:41.934Z,26.99
2023-08-24T20:38:41.863Z,26.90
2023-08-24T20:39:41.781Z,26.92
2023-08-24T20:40:41.706Z,26.89
2023-08-24T20:41:41.629Z,26.85
2023-08-24T20:42:41.559Z,26.93
2023-08-24T20:43:41.485Z,26.89
2023-08-24T20:44:41.408Z,26.90
2023-08-24T20:45:41.350Z,26.89
2023-08-24T20:46:41.330Z,26.88
2023-08-24T20:47:41.240Z,26.88
2023-08-24T20:48:41.153Z,26.90
2023-08-24T20:49:41.056Z,26.88
2023-08-24T20:50:41.008Z,26.84
2023-08-24T20:51:40.912Z,26.92
2023-08-24T20:52:40.834Z,26.80
2023-08-24T20:53:40.771Z,26.88
2023-08-24T20:54:40.692Z,26.83
2023-08-24T20:55:40.631Z,26.71
2023-08-24T20:56:40.569Z,26.78
2023-08-24T20:57:40.489Z,26.68
2023-08-24T20:58:40.408Z,26.55
2023-08-24T20:59:40.336Z,26.60
2023-08-24T21:00:40.283Z,26.53
2023-08-24T21:01:40.194Z,26.47
2023-08-24T21:02:40.216Z,26.48
2023-08-24T21:03:40.106Z,26.41
2023-08-24T21:04:39.976Z,26.37
2023-08-24T21:05:39.917Z,26.36
2023-08-24T21:06:39.831Z,26.40
2023-08-24T21:07:39.763Z,26.28
2023-08-24T21:08:39.695Z,26.25
2023-08-24T21:09:39.610Z,26.36
2023-08-24T21:10:39.538Z,26.33
2023-08-24T21:11:39.469Z,26.37
2023-08-24T21:12:39.398Z,26.26
2023-08-24T21:13:39.324Z,26.37
2023-08-24T21:14:39.251Z,26.28
2023-08-24T21:15:39.263Z,26.40
2023-08-24T21:16:39.165Z,26.44
2023-08-24T21:17:39.090Z,26.41
2023-08-24T21:18:38.963Z,26.26
2023-08-24T21:19:41.693Z,26.33
2023-08-24T21:20:38.816Z,26.25
2023-08-24T21:21:38.754Z,26.26
2023-08-24T21:22:38.678Z,26.31
2023-08-24T21:23:38.663Z,26.29
2023-08-24T21:24:38.554Z,26.28
2023-08-24T21:25:38.457Z,26.26
2023-08-24T21:26:38.384Z,26.22
2023-08-24T21:27:38.323Z,26.15
2023-08-24T21:28:38.239Z,25.96
2023-08-24T21:29:38.167Z,25.77
2023-08-24T21:30:38.141Z,25.60
2023-08-24T21:31:38.024Z,25.35
2023-08-24T21:32:38.009Z,25.25
2023-08-24T21:33:37.876Z,25.07
2023-08-24T21:34:37.805Z,24.86
2023-08-24T21:35:37.738Z,24.69
2023-08-24T21:36:37.669Z,24.57
2023-08-24T21:37:37.588Z,24.14
2023-08-24T21:38:37.516Z,23.99
2023-08-24T21:39:37.443Z,23.86
2023-08-24T21:40:37.361Z,23.76
2023-08-24T21:41:37.301Z,23.54
2023-08-24T21:42:37.900Z,23.58
2023-08-24T21:43:37.137Z,23.51
2023-08-24T21:44:37.066Z,23.47
2023-08-24T21:45:36.996Z,23.40
2023-08-24T21:46:36.946Z,23.43
2023-08-24T21:47:36.882Z,23.47
2023-08-24T21:48:36.776Z,23.37
2023-08-24T21:49:36.692Z,23.36
2023-08-24T21:50:36.658Z,23.20
2023-08-24T21:51:36.549Z,22.98
2023-08-24T21:52:36.475Z,23.02
2023-08-24T21:53:36.407Z,22.96
2023-08-24T21:54:36.352Z,23.00
2023-08-24T21:55:36.256Z,22.98
2023-08-24T21:56:36.179Z,22.88
2023-08-24T21:57:36.113Z,22.88
2023-08-24T21:58:36.025Z,22.84
2023-08-24T21:59:35.950Z,22.96
2023-08-24T22:00:35.880Z,22.80
2023-08-24T22:01:35.874Z,22.80
2023-08-24T22:02:35.829Z,22.70
2023-08-24T22:03:35.739Z,22.69
2023-08-24T22:04:35.580Z,22.70
2023-08-24T22:05:35.501Z,22.60
2023-08-24T22:06:35.432Z,22.69
2023-08-24T22:07:35.354Z,22.70
2023-08-24T22:08:35.279Z,22.73
2023-08-24T22:09:35.204Z,22.57
2023-08-24T22:10:35.137Z,22.68
2023-08-24T22:11:35.053Z,22.68
2023-08-24T22:12:34.979Z,22.68
2023-08-24T22:13:34.903Z,22.62
2023-08-24T22:14:34.831Z,22.65
2023-08-24T22:15:34.757Z,22.65
2023-08-24T22:16:34.754Z,22.55
2023-08-24T22:17:34.646Z,22.50
2023-08-24T22:18:34.551Z,22.47
2023-08-24T22:19:34.454Z,22.55
2023-08-24T22:20:34.374Z,22.54
2023-08-24T22:21:34.302Z,22.51
2023-08-24T22:22:34.228Z,22.51
2023-08-24T22:23:34.158Z,22.51
2023-08-24T22:24:34.092Z,22.53
2023-08-24T22:25:34.002Z,22.41
2023-08-24T22:26:33.930Z,22.41
2023-08-24T22:27:33.858Z,22.33
2023-08-24T22:28:33.801Z,22.35
2023-08-24T22:29:33.709Z,22.33
2023-08-24T22:30:33.629Z,22.36
2023-08-24T22:31:33.590Z,22.39
2023-08-24T22:32:33.486Z,22.39
2023-08-24T22:33:33.402Z,22.41
2023-08-24T22:34:33.328Z,22.36
2023-08-24T22:35:33.253Z,22.29
2023-08-24T22:36:33.180Z,22.23
2023-08-24T22:37:33.106Z,22.14
2023-08-24T22:38:33.023Z,22.13
2023-08-24T22:39:32.958Z,22.07
2023-08-24T22:40:32.885Z,22.14
2023-08-24T22:41:32.800Z,22.14
2023-08-24T22:42:32.727Z,22.11
2023-08-24T22:43:32.828Z,22.08
2023-08-24T22:44:32.579Z,22.14
2023-08-24T22:45:32.506Z,22.11
2023-08-24T22:46:32.429Z,22.25
2023-08-24T22:47:32.379Z,22.15
2023-08-24T22:48:32.274Z,22.23
2023-08-24T22:49:32.203Z,22.25
2023-08-24T22:50:32.123Z,22.26
2023-08-24T22:51:32.053Z,22.35
2023-08-24T22:52:31.976Z,22.36
2023-08-24T22:53:31.909Z,22.26
2023-08-24T22:54:31.835Z,22.32
2023-08-24T22:55:31.751Z,22.38
2023-08-24T22:56:31.676Z,22.32
2023-08-24T22:57:31.604Z,22.38
2023-08-24T22:58:31.528Z,22.32
2023-08-24T22:59:31.469Z,22.33
2023-08-24T23:00:31.387Z,22.29
2023-08-24T23:01:31.326Z,22.38
2023-08-24T23:02:31.283Z,22.32
2023-08-24T23:03:31.150Z,22.33
2023-08-24T23:04:31.177Z,22.43
2023-08-24T23:05:31.008Z,22.39
2023-08-24T23:06:30.935Z,22.44
2023-08-24T23:07:30.865Z,22.48
2023-08-24T23:08:30.778Z,22.39
2023-08-24T23:09:30.706Z,22.48
2023-08-24T23:10:30.626Z,22.50
2023-08-24T23:11:30.551Z,22.47
2023-08-24T23:12:30.375Z,22.55
2023-08-24T23:13:30.397Z,22.55
2023-08-24T23:14:30.321Z,22.65
2023-08-24T23:15:30.258Z,22.66
2023-08-24T23:16:30.174Z,22.65
2023-08-24T23:17:30.110Z,22.65
2023-08-24T23:18:30.019Z,22.62
2023-08-24T23:19:29.951Z,22.65
2023-08-24T23:20:29.881Z,22.59
2023-08-24T23:21:29.797Z,22.69
2023-08-24T23:22:29.619Z,22.62
2023-08-24T23:23:29.658Z,22.65
2023-08-24T23:24:49.363Z,22.70
2023-08-24T23:25:29.499Z,22.63
2023-08-24T23:26:29.423Z,22.66
2023-08-24T23:27:29.352Z,22.70
2023-08-24T23:28:29.275Z,22.70
2023-08-24T23:29:29.211Z,22.68
2023-08-24T23:30:29.132Z,22.69
2023-08-24T23:31:29.104Z,22.72
2023-08-24T23:32:29.002Z,22.69
2023-08-24T23:33:28.902Z,22.62
2023-08-24T23:34:28.834Z,22.65
2023-08-24T23:35:28.752Z,22.69
2023-08-24T23:36:28.671Z,22.65
2023-08-24T23:37:28.614Z,22.59
2023-08-24T23:38:28.521Z,22.66
2023-08-24T23:39:28.455Z,22.63
2023-08-24T23:40:28.399Z,22.72
2023-08-24T23:41:28.296Z,22.68
2023-08-24T23:42:28.244Z,22.73
2023-08-24T23:43:28.151Z,22.66
2023-08-24T23:44:28.070Z,22.63
2023-08-24T23:45:28.032Z,22.68
2023-08-24T23:46:27.928Z,22.72
2023-08-24T23:47:27.848Z,22.70
2023-08-24T23:48:27.770Z,22.69
2023-08-24T23:49:27.706Z,22.68
2023-08-24T23:50:27.624Z,22.72
2023-08-24T23:51:27.550Z,22.69
2023-08-24T23:52:27.480Z,22.69
2023-08-24T23:53:27.396Z,22.68
2023-08-24T23:54:27.322Z,22.65
2023-08-24T23:55:27.148Z,22.57
2023-08-24T23:56:27.189Z,22.65
2023-08-24T23:57:27.106Z,22.65
2023-08-24T23:58:27.028Z,22.62
2023-08-24T23:59:26.957Z,22.59
